Terminal Aerodrome Forecast
Issued by NWS Cleveland, OH

Home | Current Version | Previous Version | Graphics & Text | Print | Product List | Glossary On
Versions: 1 2 3 4 5 6 7 8 9 10 11 12 13 14 15 16 17 18 19 20 21 22 23 24 25 26 27 28
000
FTUS41 KCLE 140900 AAB
TAFCLE
TAF AMD
KCLE 140900Z 1409/1512 33015G25KT P6SM VCSH SCT005 OVC015
      TEMPO 1409/1411 4SM BLSN
     FM141300 35012KT P6SM VCSH SCT015 OVC025
     FM141900 30010KT P6SM SCT015 OVC035=

USA.gov is the U.S. government's official web portal to all federal, state and local government web resources and services.